sensor_id;sensor_type;location;lat;lon;timestamp;P1;durP1;ratioP1;P2;durP2;ratioP2
8230;SDS011;4156;50.908;6.974;2022-12-18T00:00:53;14.40;;;7.23;;
8230;SDS011;4156;50.908;6.974;2022-12-18T00:03:18;14.63;;;7.10;;
8230;SDS011;4156;50.908;6.974;2022-12-18T00:05:47;11.70;;;7.47;;
8230;SDS011;4156;50.908;6.974;2022-12-18T00:08:14;11.63;;;6.63;;
8230;SDS011;4156;50.908;6.974;2022-12-18T00:10:40;12.37;;;7.20;;
8230;SDS011;4156;50.908;6.974;2022-12-18T00:13:05;14.43;;;7.67;;
8230;SDS011;4156;50.908;6.974;2022-12-18T00:15:33;14.30;;;7.47;;
8230;SDS011;4156;50.908;6.974;2022-12-18T00:18:02;14.07;;;6.67;;
8230;SDS011;4156;50.908;6.974;2022-12-18T00:20:28;13.07;;;6.63;;
8230;SDS011;4156;50.908;6.974;2022-12-18T00:22:54;11.03;;;6.30;;
8230;SDS011;4156;50.908;6.974;2022-12-18T00:25:20;14.50;;;7.90;;
8230;SDS011;4156;50.908;6.974;2022-12-18T00:27:46;12.63;;;7.27;;
8230;SDS011;4156;50.908;6.974;2022-12-18T00:30:12;14.23;;;7.50;;
8230;SDS011;4156;50.908;6.974;2022-12-18T00:32:38;12.27;;;6.73;;
8230;SDS011;4156;50.908;6.974;2022-12-18T00:35:04;13.13;;;6.90;;
8230;SDS011;4156;50.908;6.974;2022-12-18T00:37:30;12.70;;;7.17;;
8230;SDS011;4156;50.908;6.974;2022-12-18T00:39:57;13.77;;;7.70;;
8230;SDS011;4156;50.908;6.974;2022-12-18T00:42:23;12.47;;;7.07;;
8230;SDS011;4156;50.908;6.974;2022-12-18T00:45:07;18.60;;;7.33;;
8230;SDS011;4156;50.908;6.974;2022-12-18T00:47:33;14.00;;;7.10;;
8230;SDS011;4156;50.908;6.974;2022-12-18T00:49:58;14.57;;;7.13;;
8230;SDS011;4156;50.908;6.974;2022-12-18T00:52:24;11.03;;;6.43;;
8230;SDS011;4156;50.908;6.974;2022-12-18T00:54:50;16.23;;;7.73;;
8230;SDS011;4156;50.908;6.974;2022-12-18T00:57:15;12.97;;;6.70;;
8230;SDS011;4156;50.908;6.974;2022-12-18T00:59:41;13.33;;;6.70;;
8230;SDS011;4156;50.908;6.974;2022-12-18T01:02:06;16.00;;;7.03;;
8230;SDS011;4156;50.908;6.974;2022-12-18T01:04:32;11.97;;;6.63;;
8230;SDS011;4156;50.908;6.974;2022-12-18T01:06:58;15.77;;;6.70;;
8230;SDS011;4156;50.908;6.974;2022-12-18T01:09:23;13.73;;;7.20;;
8230;SDS011;4156;50.908;6.974;2022-12-18T01:11:49;12.33;;;6.90;;
8230;SDS011;4156;50.908;6.974;2022-12-18T01:14:14;13.60;;;7.40;;
8230;SDS011;4156;50.908;6.974;2022-12-18T01:16:40;12.37;;;6.73;;
8230;SDS011;4156;50.908;6.974;2022-12-18T01:19:05;14.70;;;6.73;;
8230;SDS011;4156;50.908;6.974;2022-12-18T01:21:31;15.70;;;8.37;;
8230;SDS011;4156;50.908;6.974;2022-12-18T01:23:57;11.67;;;6.70;;
8230;SDS011;4156;50.908;6.974;2022-12-18T01:26:23;11.37;;;6.50;;
8230;SDS011;4156;50.908;6.974;2022-12-18T01:28:49;11.93;;;6.70;;
8230;SDS011;4156;50.908;6.974;2022-12-18T01:31:19;13.07;;;7.20;;
8230;SDS011;4156;50.908;6.974;2022-12-18T01:33:46;14.00;;;6.70;;
8230;SDS011;4156;50.908;6.974;2022-12-18T01:36:16;12.40;;;7.50;;
8230;SDS011;4156;50.908;6.974;2022-12-18T01:38:42;11.50;;;6.57;;
8230;SDS011;4156;50.908;6.974;2022-12-18T01:41:08;13.37;;;6.43;;
8230;SDS011;4156;50.908;6.974;2022-12-18T01:43:53;13.33;;;6.70;;
8230;SDS011;4156;50.908;6.974;2022-12-18T01:46:25;16.87;;;7.43;;
8230;SDS011;4156;50.908;6.974;2022-12-18T01:48:59;18.67;;;8.90;;
8230;SDS011;4156;50.908;6.974;2022-12-18T01:51:26;11.23;;;6.23;;
8230;SDS011;4156;50.908;6.974;2022-12-18T01:53:54;17.03;;;7.47;;
8230;SDS011;4156;50.908;6.974;2022-12-18T01:56:20;13.13;;;6.93;;
8230;SDS011;4156;50.908;6.974;2022-12-18T01:58:54;15.67;;;6.97;;
8230;SDS011;4156;50.908;6.974;2022-12-18T02:01:32;14.27;;;7.93;;
8230;SDS011;4156;50.908;6.974;2022-12-18T02:04:19;12.73;;;6.10;;
8230;SDS011;4156;50.908;6.974;2022-12-18T02:07:10;11.37;;;6.60;;
8230;SDS011;4156;50.908;6.974;2022-12-18T02:09:59;12.37;;;7.30;;
8230;SDS011;4156;50.908;6.974;2022-12-18T02:12:43;11.67;;;7.13;;
8230;SDS011;4156;50.908;6.974;2022-12-18T02:15:18;9.80;;;6.40;;
8230;SDS011;4156;50.908;6.974;2022-12-18T02:17:52;11.70;;;6.17;;
8230;SDS011;4156;50.908;6.974;2022-12-18T02:20:32;13.80;;;6.83;;
8230;SDS011;4156;50.908;6.974;2022-12-18T02:26:27;11.63;;;6.63;;
8230;SDS011;4156;50.908;6.974;2022-12-18T02:29:00;16.20;;;7.70;;
8230;SDS011;4156;50.908;6.974;2022-12-18T02:31:32;14.27;;;7.33;;
8230;SDS011;4156;50.908;6.974;2022-12-18T02:34:04;12.57;;;7.43;;
8230;SDS011;4156;50.908;6.974;2022-12-18T02:36:32;12.90;;;6.97;;
8230;SDS011;4156;50.908;6.974;2022-12-18T02:38:59;13.57;;;7.10;;
8230;SDS011;4156;50.908;6.974;2022-12-18T02:41:26;13.30;;;7.17;;
8230;SDS011;4156;50.908;6.974;2022-12-18T02:43:55;12.33;;;7.73;;
8230;SDS011;4156;50.908;6.974;2022-12-18T02:48:54;15.80;;;7.40;;
8230;SDS011;4156;50.908;6.974;2022-12-18T02:51:32;11.30;;;6.93;;
8230;SDS011;4156;50.908;6.974;2022-12-18T02:54:20;12.87;;;7.10;;
8230;SDS011;4156;50.908;6.974;2022-12-18T02:56:52;14.30;;;7.40;;
8230;SDS011;4156;50.908;6.974;2022-12-18T02:59:23;13.77;;;7.30;;
8230;SDS011;4156;50.908;6.974;2022-12-18T03:01:57;11.30;;;6.57;;
8230;SDS011;4156;50.908;6.974;2022-12-18T03:04:29;12.90;;;7.93;;
8230;SDS011;4156;50.908;6.974;2022-12-18T03:07:05;13.40;;;7.10;;
8230;SDS011;4156;50.908;6.974;2022-12-18T03:09:36;10.90;;;6.20;;
8230;SDS011;4156;50.908;6.974;2022-12-18T03:12:52;15.77;;;7.27;;
8230;SDS011;4156;50.908;6.974;2022-12-18T03:14:57;12.67;;;7.17;;
8230;SDS011;4156;50.908;6.974;2022-12-18T03:17:30;13.50;;;7.40;;
8230;SDS011;4156;50.908;6.974;2022-12-18T03:19:58;14.63;;;7.80;;
8230;SDS011;4156;50.908;6.974;2022-12-18T03:22:29;11.90;;;7.20;;
8230;SDS011;4156;50.908;6.974;2022-12-18T03:24:58;11.73;;;7.37;;
8230;SDS011;4156;50.908;6.974;2022-12-18T03:27:27;10.60;;;6.33;;
8230;SDS011;4156;50.908;6.974;2022-12-18T03:30:06;13.27;;;7.37;;
8230;SDS011;4156;50.908;6.974;2022-12-18T03:32:40;10.83;;;6.77;;
8230;SDS011;4156;50.908;6.974;2022-12-18T03:35:11;9.93;;;6.30;;
8230;SDS011;4156;50.908;6.974;2022-12-18T03:37:39;13.87;;;6.83;;
8230;SDS011;4156;50.908;6.974;2022-12-18T03:40:04;14.43;;;7.10;;
8230;SDS011;4156;50.908;6.974;2022-12-18T03:45:26;12.23;;;6.23;;
8230;SDS011;4156;50.908;6.974;2022-12-18T03:48:16;14.17;;;6.50;;
8230;SDS011;4156;50.908;6.974;2022-12-18T03:50:57;15.27;;;7.07;;
8230;SDS011;4156;50.908;6.974;2022-12-18T03:53:35;12.20;;;7.03;;
8230;SDS011;4156;50.908;6.974;2022-12-18T03:56:11;11.27;;;6.40;;
8230;SDS011;4156;50.908;6.974;2022-12-18T03:58:40;13.53;;;7.37;;
8230;SDS011;4156;50.908;6.974;2022-12-18T04:01:07;13.87;;;6.30;;
8230;SDS011;4156;50.908;6.974;2022-12-18T04:03:35;11.83;;;6.77;;
8230;SDS011;4156;50.908;6.974;2022-12-18T04:06:02;10.07;;;6.80;;
8230;SDS011;4156;50.908;6.974;2022-12-18T04:08:29;12.67;;;6.93;;
8230;SDS011;4156;50.908;6.974;2022-12-18T04:10:55;13.23;;;6.83;;
8230;SDS011;4156;50.908;6.974;2022-12-18T04:13:22;12.73;;;7.17;;
8230;SDS011;4156;50.908;6.974;2022-12-18T04:15:48;14.10;;;7.60;;
8230;SDS011;4156;50.908;6.974;2022-12-18T04:18:14;12.43;;;7.67;;
8230;SDS011;4156;50.908;6.974;2022-12-18T04:20:39;10.87;;;6.27;;
8230;SDS011;4156;50.908;6.974;2022-12-18T04:23:04;13.30;;;7.33;;
8230;SDS011;4156;50.908;6.974;2022-12-18T04:25:30;12.07;;;7.23;;
8230;SDS011;4156;50.908;6.974;2022-12-18T04:27:55;15.27;;;7.20;;
8230;SDS011;4156;50.908;6.974;2022-12-18T04:30:21;14.87;;;8.70;;
8230;SDS011;4156;50.908;6.974;2022-12-18T04:32:46;15.77;;;7.07;;
8230;SDS011;4156;50.908;6.974;2022-12-18T04:35:12;14.53;;;8.50;;
8230;SDS011;4156;50.908;6.974;2022-12-18T04:37:37;11.33;;;6.80;;
8230;SDS011;4156;50.908;6.974;2022-12-18T04:40:04;13.53;;;7.63;;
8230;SDS011;4156;50.908;6.974;2022-12-18T04:42:30;13.30;;;7.20;;
8230;SDS011;4156;50.908;6.974;2022-12-18T04:44:55;12.80;;;7.47;;
8230;SDS011;4156;50.908;6.974;2022-12-18T04:47:21;15.53;;;8.20;;
8230;SDS011;4156;50.908;6.974;2022-12-18T04:49:46;15.50;;;7.57;;
8230;SDS011;4156;50.908;6.974;2022-12-18T04:52:11;15.17;;;8.53;;
8230;SDS011;4156;50.908;6.974;2022-12-18T04:54:37;13.80;;;7.67;;
8230;SDS011;4156;50.908;6.974;2022-12-18T04:57:02;17.33;;;8.87;;
8230;SDS011;4156;50.908;6.974;2022-12-18T04:59:28;16.20;;;8.47;;
8230;SDS011;4156;50.908;6.974;2022-12-18T05:01:53;15.83;;;8.00;;
8230;SDS011;4156;50.908;6.974;2022-12-18T05:04:19;14.30;;;7.33;;
8230;SDS011;4156;50.908;6.974;2022-12-18T05:06:44;16.37;;;7.90;;
8230;SDS011;4156;50.908;6.974;2022-12-18T05:09:10;15.50;;;8.37;;
8230;SDS011;4156;50.908;6.974;2022-12-18T05:11:35;17.60;;;8.47;;
8230;SDS011;4156;50.908;6.974;2022-12-18T05:14:01;16.90;;;8.97;;
8230;SDS011;4156;50.908;6.974;2022-12-18T05:16:27;14.23;;;8.07;;
8230;SDS011;4156;50.908;6.974;2022-12-18T05:18:52;13.40;;;8.13;;
8230;SDS011;4156;50.908;6.974;2022-12-18T05:21:18;14.57;;;8.13;;
8230;SDS011;4156;50.908;6.974;2022-12-18T05:23:43;14.80;;;8.27;;
8230;SDS011;4156;50.908;6.974;2022-12-18T05:26:16;15.50;;;7.87;;
8230;SDS011;4156;50.908;6.974;2022-12-18T05:28:43;17.43;;;8.47;;
8230;SDS011;4156;50.908;6.974;2022-12-18T05:31:09;15.23;;;8.60;;
8230;SDS011;4156;50.908;6.974;2022-12-18T05:33:35;14.40;;;7.17;;
8230;SDS011;4156;50.908;6.974;2022-12-18T05:36:03;17.37;;;8.17;;
8230;SDS011;4156;50.908;6.974;2022-12-18T05:38:31;14.57;;;7.63;;
8230;SDS011;4156;50.908;6.974;2022-12-18T05:40:58;16.23;;;8.10;;
8230;SDS011;4156;50.908;6.974;2022-12-18T05:43:24;14.17;;;8.40;;
8230;SDS011;4156;50.908;6.974;2022-12-18T05:45:51;14.23;;;7.83;;
8230;SDS011;4156;50.908;6.974;2022-12-18T05:48:17;12.60;;;7.37;;
8230;SDS011;4156;50.908;6.974;2022-12-18T05:50:44;18.73;;;9.03;;
8230;SDS011;4156;50.908;6.974;2022-12-18T05:53:11;15.17;;;7.50;;
8230;SDS011;4156;50.908;6.974;2022-12-18T05:55:38;14.13;;;8.20;;
8230;SDS011;4156;50.908;6.974;2022-12-18T05:58:06;14.17;;;7.27;;
8230;SDS011;4156;50.908;6.974;2022-12-18T06:00:33;16.40;;;8.00;;
8230;SDS011;4156;50.908;6.974;2022-12-18T06:03:04;14.97;;;8.17;;
8230;SDS011;4156;50.908;6.974;2022-12-18T06:05:34;14.47;;;8.03;;
8230;SDS011;4156;50.908;6.974;2022-12-18T06:08:01;15.20;;;7.83;;
8230;SDS011;4156;50.908;6.974;2022-12-18T06:10:27;14.37;;;8.13;;
8230;SDS011;4156;50.908;6.974;2022-12-18T06:12:52;15.47;;;8.27;;
8230;SDS011;4156;50.908;6.974;2022-12-18T06:15:18;15.83;;;8.17;;
8230;SDS011;4156;50.908;6.974;2022-12-18T06:17:43;16.67;;;8.10;;
8230;SDS011;4156;50.908;6.974;2022-12-18T06:20:09;15.37;;;8.10;;
8230;SDS011;4156;50.908;6.974;2022-12-18T06:22:34;14.83;;;8.17;;
8230;SDS011;4156;50.908;6.974;2022-12-18T06:25:00;13.80;;;8.47;;
8230;SDS011;4156;50.908;6.974;2022-12-18T06:27:25;14.00;;;8.80;;
8230;SDS011;4156;50.908;6.974;2022-12-18T06:29:51;15.33;;;8.20;;
8230;SDS011;4156;50.908;6.974;2022-12-18T06:32:17;14.77;;;7.63;;
8230;SDS011;4156;50.908;6.974;2022-12-18T06:34:42;20.23;;;8.07;;
8230;SDS011;4156;50.908;6.974;2022-12-18T06:37:08;15.13;;;7.77;;
8230;SDS011;4156;50.908;6.974;2022-12-18T06:39:33;12.60;;;7.63;;
8230;SDS011;4156;50.908;6.974;2022-12-18T06:41:59;16.90;;;8.43;;
8230;SDS011;4156;50.908;6.974;2022-12-18T06:44:24;16.60;;;8.30;;
8230;SDS011;4156;50.908;6.974;2022-12-18T06:46:50;15.40;;;8.77;;
8230;SDS011;4156;50.908;6.974;2022-12-18T06:49:15;18.40;;;8.53;;
8230;SDS011;4156;50.908;6.974;2022-12-18T06:51:41;16.37;;;7.93;;
8230;SDS011;4156;50.908;6.974;2022-12-18T06:54:07;11.43;;;7.43;;
8230;SDS011;4156;50.908;6.974;2022-12-18T06:56:32;16.40;;;8.60;;
8230;SDS011;4156;50.908;6.974;2022-12-18T06:58:58;13.83;;;7.83;;
8230;SDS011;4156;50.908;6.974;2022-12-18T07:01:23;17.10;;;9.83;;
8230;SDS011;4156;50.908;6.974;2022-12-18T07:03:52;14.17;;;8.37;;
8230;SDS011;4156;50.908;6.974;2022-12-18T07:06:20;15.77;;;8.20;;
8230;SDS011;4156;50.908;6.974;2022-12-18T07:08:47;14.47;;;8.03;;
8230;SDS011;4156;50.908;6.974;2022-12-18T07:11:13;18.97;;;8.57;;
8230;SDS011;4156;50.908;6.974;2022-12-18T07:13:39;16.60;;;9.00;;
8230;SDS011;4156;50.908;6.974;2022-12-18T07:16:06;14.57;;;8.23;;
8230;SDS011;4156;50.908;6.974;2022-12-18T07:18:34;18.47;;;9.33;;
8230;SDS011;4156;50.908;6.974;2022-12-18T07:21:03;17.23;;;8.10;;
8230;SDS011;4156;50.908;6.974;2022-12-18T07:23:33;15.87;;;8.47;;
8230;SDS011;4156;50.908;6.974;2022-12-18T07:26:00;17.90;;;9.27;;
8230;SDS011;4156;50.908;6.974;2022-12-18T07:28:27;16.00;;;8.13;;
8230;SDS011;4156;50.908;6.974;2022-12-18T07:30:52;20.63;;;7.87;;
8230;SDS011;4156;50.908;6.974;2022-12-18T07:33:18;15.30;;;8.23;;
8230;SDS011;4156;50.908;6.974;2022-12-18T07:35:44;16.13;;;7.93;;
8230;SDS011;4156;50.908;6.974;2022-12-18T07:38:09;16.90;;;8.53;;
8230;SDS011;4156;50.908;6.974;2022-12-18T07:40:35;17.57;;;8.77;;
8230;SDS011;4156;50.908;6.974;2022-12-18T07:43:00;17.43;;;8.03;;
8230;SDS011;4156;50.908;6.974;2022-12-18T07:45:26;16.90;;;8.67;;
8230;SDS011;4156;50.908;6.974;2022-12-18T07:47:51;18.53;;;8.07;;
8230;SDS011;4156;50.908;6.974;2022-12-18T07:50:17;15.73;;;8.43;;
8230;SDS011;4156;50.908;6.974;2022-12-18T07:52:42;18.37;;;9.60;;
8230;SDS011;4156;50.908;6.974;2022-12-18T07:55:08;16.20;;;8.07;;
8230;SDS011;4156;50.908;6.974;2022-12-18T07:57:33;15.73;;;8.40;;
8230;SDS011;4156;50.908;6.974;2022-12-18T07:59:59;15.47;;;8.37;;
8230;SDS011;4156;50.908;6.974;2022-12-18T08:02:24;17.00;;;8.03;;
8230;SDS011;4156;50.908;6.974;2022-12-18T08:04:50;16.53;;;7.77;;
8230;SDS011;4156;50.908;6.974;2022-12-18T08:07:15;18.13;;;9.70;;
8230;SDS011;4156;50.908;6.974;2022-12-18T08:09:41;17.20;;;9.63;;
8230;SDS011;4156;50.908;6.974;2022-12-18T08:12:06;14.47;;;7.90;;
8230;SDS011;4156;50.908;6.974;2022-12-18T08:14:32;16.13;;;8.87;;
8230;SDS011;4156;50.908;6.974;2022-12-18T08:16:57;18.07;;;9.33;;
8230;SDS011;4156;50.908;6.974;2022-12-18T08:19:23;15.87;;;7.67;;
8230;SDS011;4156;50.908;6.974;2022-12-18T08:21:48;15.80;;;7.83;;
8230;SDS011;4156;50.908;6.974;2022-12-18T08:24:14;15.30;;;8.90;;
8230;SDS011;4156;50.908;6.974;2022-12-18T08:26:39;17.60;;;8.87;;
8230;SDS011;4156;50.908;6.974;2022-12-18T08:29:05;14.93;;;7.77;;
8230;SDS011;4156;50.908;6.974;2022-12-18T08:31:30;13.80;;;7.43;;
8230;SDS011;4156;50.908;6.974;2022-12-18T08:33:56;14.17;;;8.40;;
8230;SDS011;4156;50.908;6.974;2022-12-18T08:36:22;15.63;;;8.50;;
8230;SDS011;4156;50.908;6.974;2022-12-18T08:38:48;15.33;;;8.50;;
8230;SDS011;4156;50.908;6.974;2022-12-18T08:41:15;13.80;;;8.30;;
8230;SDS011;4156;50.908;6.974;2022-12-18T08:43:41;18.77;;;8.40;;
8230;SDS011;4156;50.908;6.974;2022-12-18T08:46:26;16.13;;;8.80;;
8230;SDS011;4156;50.908;6.974;2022-12-18T08:48:55;14.43;;;7.67;;
8230;SDS011;4156;50.908;6.974;2022-12-18T08:51:21;16.10;;;9.57;;
8230;SDS011;4156;50.908;6.974;2022-12-18T08:53:47;17.73;;;8.23;;
8230;SDS011;4156;50.908;6.974;2022-12-18T08:56:13;12.17;;;7.87;;
8230;SDS011;4156;50.908;6.974;2022-12-18T08:58:39;16.03;;;8.33;;
8230;SDS011;4156;50.908;6.974;2022-12-18T09:01:06;15.93;;;7.93;;
8230;SDS011;4156;50.908;6.974;2022-12-18T09:03:34;19.97;;;9.37;;
8230;SDS011;4156;50.908;6.974;2022-12-18T09:06:00;15.73;;;8.13;;
8230;SDS011;4156;50.908;6.974;2022-12-18T09:08:26;16.67;;;9.13;;
8230;SDS011;4156;50.908;6.974;2022-12-18T09:10:51;21.00;;;8.47;;
8230;SDS011;4156;50.908;6.974;2022-12-18T09:13:17;14.83;;;7.87;;
8230;SDS011;4156;50.908;6.974;2022-12-18T09:15:50;18.30;;;9.10;;
8230;SDS011;4156;50.908;6.974;2022-12-18T09:18:18;15.63;;;8.03;;
8230;SDS011;4156;50.908;6.974;2022-12-18T09:20:45;16.53;;;8.50;;
8230;SDS011;4156;50.908;6.974;2022-12-18T09:23:11;17.27;;;8.97;;
8230;SDS011;4156;50.908;6.974;2022-12-18T09:25:37;15.10;;;7.97;;
8230;SDS011;4156;50.908;6.974;2022-12-18T09:28:04;14.60;;;7.93;;
8230;SDS011;4156;50.908;6.974;2022-12-18T09:30:38;15.73;;;8.27;;
8230;SDS011;4156;50.908;6.974;2022-12-18T09:33:04;11.97;;;7.27;;
8230;SDS011;4156;50.908;6.974;2022-12-18T09:35:30;17.10;;;8.57;;
8230;SDS011;4156;50.908;6.974;2022-12-18T09:37:55;13.57;;;8.47;;
8230;SDS011;4156;50.908;6.974;2022-12-18T09:40:22;15.13;;;7.47;;
8230;SDS011;4156;50.908;6.974;2022-12-18T09:42:51;13.03;;;7.30;;
8230;SDS011;4156;50.908;6.974;2022-12-18T09:45:23;16.60;;;8.73;;
8230;SDS011;4156;50.908;6.974;2022-12-18T09:47:49;15.30;;;8.17;;
8230;SDS011;4156;50.908;6.974;2022-12-18T09:50:24;16.73;;;7.80;;
8230;SDS011;4156;50.908;6.974;2022-12-18T09:52:54;18.90;;;9.57;;
8230;SDS011;4156;50.908;6.974;2022-12-18T09:55:24;15.97;;;8.93;;
8230;SDS011;4156;50.908;6.974;2022-12-18T09:58:06;14.97;;;7.80;;
8230;SDS011;4156;50.908;6.974;2022-12-18T10:00:52;18.77;;;9.17;;
8230;SDS011;4156;50.908;6.974;2022-12-18T10:03:18;16.37;;;8.77;;
8230;SDS011;4156;50.908;6.974;2022-12-18T10:06:02;13.77;;;7.47;;
8230;SDS011;4156;50.908;6.974;2022-12-18T10:08:40;16.93;;;8.03;;
8230;SDS011;4156;50.908;6.974;2022-12-18T10:14:09;17.03;;;8.70;;
8230;SDS011;4156;50.908;6.974;2022-12-18T10:25:22;12.73;;;7.43;;
8230;SDS011;4156;50.908;6.974;2022-12-18T10:27:57;15.93;;;7.73;;
8230;SDS011;4156;50.908;6.974;2022-12-18T10:30:31;15.87;;;8.73;;
8230;SDS011;4156;50.908;6.974;2022-12-18T10:33:00;13.50;;;7.87;;
8230;SDS011;4156;50.908;6.974;2022-12-18T10:35:27;13.50;;;7.50;;
8230;SDS011;4156;50.908;6.974;2022-12-18T10:37:59;15.23;;;8.07;;
8230;SDS011;4156;50.908;6.974;2022-12-18T10:40:28;17.07;;;7.87;;
8230;SDS011;4156;50.908;6.974;2022-12-18T10:43:12;15.17;;;8.30;;
8230;SDS011;4156;50.908;6.974;2022-12-18T10:45:39;16.20;;;8.20;;
8230;SDS011;4156;50.908;6.974;2022-12-18T10:48:17;11.93;;;7.10;;
8230;SDS011;4156;50.908;6.974;2022-12-18T10:50:46;14.83;;;9.00;;
8230;SDS011;4156;50.908;6.974;2022-12-18T10:53:16;14.17;;;7.80;;
8230;SDS011;4156;50.908;6.974;2022-12-18T10:55:51;13.40;;;7.23;;
8230;SDS011;4156;50.908;6.974;2022-12-18T10:58:26;18.87;;;8.43;;
8230;SDS011;4156;50.908;6.974;2022-12-18T11:03:31;15.30;;;7.57;;
8230;SDS011;4156;50.908;6.974;2022-12-18T11:08:31;17.73;;;8.77;;
8230;SDS011;4156;50.908;6.974;2022-12-18T11:10:57;13.23;;;7.27;;
8230;SDS011;4156;50.908;6.974;2022-12-18T11:13:24;12.33;;;7.20;;
8230;SDS011;4156;50.908;6.974;2022-12-18T11:15:51;14.03;;;7.67;;
8230;SDS011;4156;50.908;6.974;2022-12-18T11:18:30;15.10;;;7.33;;
8230;SDS011;4156;50.908;6.974;2022-12-18T11:20:59;13.90;;;8.20;;
8230;SDS011;4156;50.908;6.974;2022-12-18T11:23:34;15.97;;;8.27;;
8230;SDS011;4156;50.908;6.974;2022-12-18T11:26:02;13.47;;;7.93;;
8230;SDS011;4156;50.908;6.974;2022-12-18T11:36:38;15.90;;;8.17;;
8230;SDS011;4156;50.908;6.974;2022-12-18T11:42:10;17.00;;;8.67;;
8230;SDS011;4156;50.908;6.974;2022-12-18T11:47:31;14.73;;;8.33;;
8230;SDS011;4156;50.908;6.974;2022-12-18T11:50:10;13.77;;;7.80;;
8230;SDS011;4156;50.908;6.974;2022-12-18T11:52:40;14.80;;;8.73;;
8230;SDS011;4156;50.908;6.974;2022-12-18T11:55:14;14.67;;;8.23;;
8230;SDS011;4156;50.908;6.974;2022-12-18T11:57:52;16.63;;;8.10;;
8230;SDS011;4156;50.908;6.974;2022-12-18T12:00:42;15.03;;;8.00;;
8230;SDS011;4156;50.908;6.974;2022-12-18T12:06:52;14.90;;;8.03;;
8230;SDS011;4156;50.908;6.974;2022-12-18T12:14:52;14.80;;;8.47;;
8230;SDS011;4156;50.908;6.974;2022-12-18T12:20:22;18.03;;;9.37;;
8230;SDS011;4156;50.908;6.974;2022-12-18T12:25:41;14.90;;;9.03;;
8230;SDS011;4156;50.908;6.974;2022-12-18T12:33:58;16.13;;;8.63;;
8230;SDS011;4156;50.908;6.974;2022-12-18T12:39:01;14.83;;;9.60;;
8230;SDS011;4156;50.908;6.974;2022-12-18T12:41:33;17.13;;;8.73;;
8230;SDS011;4156;50.908;6.974;2022-12-18T12:44:20;13.50;;;8.73;;
8230;SDS011;4156;50.908;6.974;2022-12-18T12:46:50;16.37;;;8.03;;
8230;SDS011;4156;50.908;6.974;2022-12-18T12:49:20;14.27;;;9.13;;
8230;SDS011;4156;50.908;6.974;2022-12-18T12:54:46;15.60;;;8.80;;
8230;SDS011;4156;50.908;6.974;2022-12-18T12:57:16;14.57;;;8.30;;
8230;SDS011;4156;50.908;6.974;2022-12-18T12:59:52;18.10;;;9.60;;
8230;SDS011;4156;50.908;6.974;2022-12-18T13:05:13;15.13;;;8.80;;
8230;SDS011;4156;50.908;6.974;2022-12-18T13:08:05;14.77;;;8.90;;
8230;SDS011;4156;50.908;6.974;2022-12-18T13:10:37;18.40;;;8.70;;
8230;SDS011;4156;50.908;6.974;2022-12-18T13:15:41;17.87;;;9.50;;
8230;SDS011;4156;50.908;6.974;2022-12-18T13:25:49;20.63;;;10.17;;
8230;SDS011;4156;50.908;6.974;2022-12-18T13:28:16;18.40;;;9.67;;
8230;SDS011;4156;50.908;6.974;2022-12-18T13:30:55;20.00;;;9.67;;
8230;SDS011;4156;50.908;6.974;2022-12-18T13:38:23;18.90;;;10.27;;
8230;SDS011;4156;50.908;6.974;2022-12-18T13:43:46;16.87;;;9.73;;
8230;SDS011;4156;50.908;6.974;2022-12-18T13:46:29;18.00;;;10.07;;
8230;SDS011;4156;50.908;6.974;2022-12-18T13:51:40;21.40;;;9.73;;
8230;SDS011;4156;50.908;6.974;2022-12-18T13:56:45;17.77;;;9.93;;
8230;SDS011;4156;50.908;6.974;2022-12-18T13:59:16;21.97;;;9.70;;
8230;SDS011;4156;50.908;6.974;2022-12-18T14:01:48;21.03;;;9.67;;
8230;SDS011;4156;50.908;6.974;2022-12-18T14:04:21;17.10;;;9.67;;
8230;SDS011;4156;50.908;6.974;2022-12-18T14:06:56;17.77;;;9.27;;
8230;SDS011;4156;50.908;6.974;2022-12-18T14:09:44;19.93;;;10.20;;
8230;SDS011;4156;50.908;6.974;2022-12-18T14:12:26;18.37;;;9.97;;
8230;SDS011;4156;50.908;6.974;2022-12-18T14:18:09;16.43;;;9.27;;
8230;SDS011;4156;50.908;6.974;2022-12-18T14:20:39;17.80;;;10.03;;
8230;SDS011;4156;50.908;6.974;2022-12-18T14:25:57;18.47;;;9.17;;
8230;SDS011;4156;50.908;6.974;2022-12-18T14:28:23;18.93;;;9.73;;
8230;SDS011;4156;50.908;6.974;2022-12-18T14:30:49;19.03;;;9.93;;
8230;SDS011;4156;50.908;6.974;2022-12-18T14:33:20;18.30;;;10.77;;
8230;SDS011;4156;50.908;6.974;2022-12-18T14:35:57;18.77;;;10.43;;
8230;SDS011;4156;50.908;6.974;2022-12-18T14:38:29;19.33;;;10.57;;
8230;SDS011;4156;50.908;6.974;2022-12-18T14:41:14;17.77;;;10.17;;
8230;SDS011;4156;50.908;6.974;2022-12-18T14:43:42;19.90;;;10.03;;
8230;SDS011;4156;50.908;6.974;2022-12-18T14:49:14;20.07;;;10.77;;
8230;SDS011;4156;50.908;6.974;2022-12-18T14:51:50;20.27;;;10.77;;
8230;SDS011;4156;50.908;6.974;2022-12-18T14:54:24;19.90;;;10.40;;
8230;SDS011;4156;50.908;6.974;2022-12-18T14:56:51;20.90;;;11.10;;
8230;SDS011;4156;50.908;6.974;2022-12-18T14:59:31;17.10;;;10.20;;
8230;SDS011;4156;50.908;6.974;2022-12-18T15:04:34;15.63;;;9.27;;
8230;SDS011;4156;50.908;6.974;2022-12-18T15:07:17;20.80;;;10.50;;
8230;SDS011;4156;50.908;6.974;2022-12-18T15:10:04;21.17;;;11.17;;
8230;SDS011;4156;50.908;6.974;2022-12-18T15:12:40;22.17;;;11.47;;
8230;SDS011;4156;50.908;6.974;2022-12-18T15:20:33;17.33;;;10.90;;
8230;SDS011;4156;50.908;6.974;2022-12-18T15:25:59;21.97;;;11.07;;
8230;SDS011;4156;50.908;6.974;2022-12-18T15:28:34;21.63;;;11.13;;
8230;SDS011;4156;50.908;6.974;2022-12-18T15:31:06;20.87;;;11.80;;
8230;SDS011;4156;50.908;6.974;2022-12-18T15:36:20;22.77;;;11.20;;
8230;SDS011;4156;50.908;6.974;2022-12-18T15:38:48;20.80;;;11.13;;
8230;SDS011;4156;50.908;6.974;2022-12-18T15:41:18;19.90;;;10.47;;
8230;SDS011;4156;50.908;6.974;2022-12-18T15:43:46;20.63;;;10.57;;
8230;SDS011;4156;50.908;6.974;2022-12-18T15:48:41;19.40;;;10.93;;
8230;SDS011;4156;50.908;6.974;2022-12-18T15:51:13;18.13;;;10.43;;
8230;SDS011;4156;50.908;6.974;2022-12-18T15:53:42;21.23;;;11.97;;
8230;SDS011;4156;50.908;6.974;2022-12-18T15:56:11;20.57;;;12.37;;
8230;SDS011;4156;50.908;6.974;2022-12-18T15:58:56;21.27;;;11.97;;
8230;SDS011;4156;50.908;6.974;2022-12-18T16:01:25;20.33;;;11.30;;
8230;SDS011;4156;50.908;6.974;2022-12-18T16:03:56;18.27;;;9.83;;
8230;SDS011;4156;50.908;6.974;2022-12-18T16:06:22;22.73;;;11.73;;
8230;SDS011;4156;50.908;6.974;2022-12-18T16:08:47;19.30;;;10.83;;
8230;SDS011;4156;50.908;6.974;2022-12-18T16:11:20;21.73;;;11.03;;
8230;SDS011;4156;50.908;6.974;2022-12-18T16:14:08;24.27;;;12.10;;
8230;SDS011;4156;50.908;6.974;2022-12-18T16:16:46;18.93;;;10.90;;
8230;SDS011;4156;50.908;6.974;2022-12-18T16:19:14;21.80;;;11.73;;
8230;SDS011;4156;50.908;6.974;2022-12-18T16:21:40;23.37;;;11.97;;
8230;SDS011;4156;50.908;6.974;2022-12-18T16:24:05;20.93;;;11.60;;
8230;SDS011;4156;50.908;6.974;2022-12-18T16:26:41;20.90;;;11.27;;
8230;SDS011;4156;50.908;6.974;2022-12-18T16:29:07;23.40;;;10.83;;
8230;SDS011;4156;50.908;6.974;2022-12-18T16:31:33;21.43;;;10.83;;
8230;SDS011;4156;50.908;6.974;2022-12-18T16:36:46;20.90;;;10.93;;
8230;SDS011;4156;50.908;6.974;2022-12-18T16:39:15;19.50;;;12.00;;
8230;SDS011;4156;50.908;6.974;2022-12-18T16:41:41;20.77;;;11.47;;
8230;SDS011;4156;50.908;6.974;2022-12-18T16:44:07;26.67;;;11.83;;
8230;SDS011;4156;50.908;6.974;2022-12-18T16:46:32;24.57;;;11.90;;
8230;SDS011;4156;50.908;6.974;2022-12-18T16:48:58;25.37;;;12.80;;
8230;SDS011;4156;50.908;6.974;2022-12-18T16:51:25;23.27;;;11.53;;
8230;SDS011;4156;50.908;6.974;2022-12-18T16:53:51;21.83;;;12.53;;
8230;SDS011;4156;50.908;6.974;2022-12-18T16:56:17;21.80;;;12.53;;
8230;SDS011;4156;50.908;6.974;2022-12-18T16:58:43;24.27;;;12.70;;
8230;SDS011;4156;50.908;6.974;2022-12-18T17:01:09;26.40;;;12.90;;
8230;SDS011;4156;50.908;6.974;2022-12-18T17:03:35;22.40;;;11.70;;
8230;SDS011;4156;50.908;6.974;2022-12-18T17:06:01;21.00;;;11.50;;
8230;SDS011;4156;50.908;6.974;2022-12-18T17:08:28;24.20;;;12.87;;
8230;SDS011;4156;50.908;6.974;2022-12-18T17:10:53;22.87;;;11.17;;
8230;SDS011;4156;50.908;6.974;2022-12-18T17:13:19;22.10;;;12.30;;